Time;durP1;ratioP1;P1;durP2;ratioP2;P2;SDS_P1;SDS_P2;PMS_P1;PMS_P2;Temp;Humidity;BMP_temperature;BMP_pressure;BME280_temperature;BME280_humidity;BME280_pressure;Samples;Min_cycle;Max_cycle;Signal;HPM_P1;HPM_P2
2023/06/05 00:01:11;;;;;;;2.40;1.90;;;14.90;75.70;;;;;;5035198;28;20515;-68
2023/06/05 00:03:39;;;;;;;2.60;1.60;;;14.90;76.00;;;;;;5034011;28;20414;-69
2023/06/05 00:06:06;;;;;;;2.60;1.77;;;14.80;76.40;;;;;;5031462;28;20230;-69
2023/06/05 00:08:32;;;;;;;3.53;2.10;;;14.80;76.80;;;;;;5034551;28;20410;-69
2023/06/05 00:10:57;;;;;;;7.40;2.37;;;14.80;77.00;;;;;;5034011;28;21032;-68
2023/06/05 00:13:23;;;;;;;2.97;1.57;;;14.70;77.40;;;;;;5034335;28;20255;-68
2023/06/05 00:15:49;;;;;;;3.90;2.03;;;14.60;77.50;;;;;;5033569;28;20168;-69
2023/06/05 00:18:15;;;;;;;3.10;1.53;;;14.60;78.80;;;;;;5034655;28;20251;-69
2023/06/05 00:20:41;;;;;;;1.77;1.33;;;14.60;78.40;;;;;;5032963;28;20529;-69
2023/06/05 00:23:08;;;;;;;3.37;1.87;;;14.50;78.50;;;;;;5034549;28;20445;-69
2023/06/05 00:25:34;;;;;;;3.73;2.23;;;14.50;78.90;;;;;;5034513;28;20179;-69
2023/06/05 00:27:59;;;;;;;1.97;1.53;;;14.50;79.40;;;;;;5034045;28;20465;-69
2023/06/05 00:30:25;;;;;;;2.50;2.30;;;14.40;79.60;;;;;;5033715;28;20258;-69
2023/06/05 00:32:51;;;;;;;3.43;1.80;;;14.30;80.00;;;;;;5032815;28;20251;-69
2023/06/05 00:35:16;;;;;;;5.60;1.73;;;14.30;80.50;;;;;;5033004;28;20179;-69
2023/06/05 00:37:43;;;;;;;1.73;1.60;;;14.30;80.80;;;;;;5034153;28;20195;-69
2023/06/05 00:40:09;;;;;;;3.20;1.70;;;14.30;81.10;;;;;;5032943;28;20183;-68
2023/06/05 00:42:35;;;;;;;2.87;1.77;;;14.30;81.40;;;;;;5034071;28;20467;-69
2023/06/05 00:45:00;;;;;;;1.47;1.33;;;14.20;81.50;;;;;;5034121;28;20182;-69
2023/06/05 00:47:26;;;;;;;2.17;1.73;;;14.20;81.60;;;;;;5034026;28;20211;-68
2023/06/05 00:49:52;;;;;;;2.37;1.50;;;14.10;82.10;;;;;;5034639;28;20167;-69
2023/06/05 00:52:18;;;;;;;3.73;1.93;;;14.10;82.60;;;;;;5033125;28;20433;-69
2023/06/05 00:54:44;;;;;;;1.77;1.63;;;14.00;82.80;;;;;;5034006;28;20424;-68
2023/06/05 00:57:11;;;;;;;1.77;1.50;;;14.00;83.50;;;;;;5034121;28;20966;-69
2023/06/05 00:59:37;;;;;;;2.40;1.70;;;13.90;83.90;;;;;;5033934;28;20421;-68
2023/06/05 01:02:03;;;;;;;4.23;1.40;;;13.90;84.40;;;;;;5034711;28;20425;-68
2023/06/05 01:04:36;;;;;;;5.27;1.30;;;13.80;84.80;;;;;;5034977;28;20410;-69
2023/06/05 01:07:02;;;;;;;2.03;1.47;;;13.80;85.10;;;;;;5034432;28;20829;-69
2023/06/05 01:09:29;;;;;;;2.37;1.50;;;13.70;85.30;;;;;;5033494;28;20457;-69
2023/06/05 01:12:17;;;;;;;3.17;1.47;;;13.70;85.70;;;;;;5034174;28;20413;-69
2023/06/05 01:14:47;;;;;;;2.13;1.43;;;13.60;86.00;;;;;;5034513;28;20465;-69
2023/06/05 01:17:13;;;;;;;4.30;1.70;;;13.60;86.30;;;;;;5033298;28;20695;-68
2023/06/05 01:19:40;;;;;;;1.73;1.43;;;13.60;86.80;;;;;;5031789;28;21010;-68
2023/06/05 01:22:05;;;;;;;2.20;1.60;;;13.60;86.90;;;;;;5033337;28;20505;-68
2023/06/05 01:24:32;;;;;;;3.03;1.50;;;13.50;87.30;;;;;;5033418;28;20486;-69
2023/06/05 01:27:15;;;;;;;1.70;1.60;;;13.50;87.60;;;;;;5033009;28;20847;-68
2023/06/05 01:30:00;;;;;;;2.03;1.63;;;13.40;87.90;;;;;;5033981;28;20410;-69
2023/06/05 01:32:36;;;;;;;1.37;1.10;;;13.40;88.20;;;;;;5031387;28;21109;-69
2023/06/05 01:35:06;;;;;;;1.67;1.57;;;13.30;88.50;;;;;;5033239;28;21079;-69
2023/06/05 01:37:40;;;;;;;3.47;2.07;;;13.30;89.00;;;;;;5033248;28;20852;-69
2023/06/05 01:40:11;;;;;;;4.30;1.60;;;13.30;89.30;;;;;;5033413;28;20474;-68
2023/06/05 01:42:39;;;;;;;1.33;1.20;;;13.30;89.80;;;;;;5033214;28;20403;-69
2023/06/05 01:45:07;;;;;;;1.90;1.37;;;13.30;89.90;;;;;;5033163;28;20504;-70
2023/06/05 01:47:37;;;;;;;2.80;1.40;;;13.20;89.90;;;;;;5027475;28;20477;-68
2023/06/05 01:50:07;;;;;;;1.50;1.40;;;13.20;90.10;;;;;;5032994;28;20745;-69
2023/06/05 01:52:34;;;;;;;1.40;1.30;;;13.20;90.20;;;;;;5033675;28;20885;-69
2023/06/05 01:55:01;;;;;;;1.37;1.27;;;13.20;90.20;;;;;;5033532;28;20436;-69
2023/06/05 01:57:33;;;;;;;4.33;2.17;;;13.20;90.40;;;;;;5033914;28;20503;-69
2023/06/05 02:00:01;;;;;;;1.30;1.10;;;13.10;90.20;;;;;;5026978;28;20399;-69
2023/06/05 02:02:28;;;;;;;1.80;1.53;;;13.20;90.50;;;;;;5031989;28;20445;-69
2023/06/05 02:04:54;;;;;;;1.90;1.53;;;13.20;90.40;;;;;;5033076;28;20421;-70
2023/06/05 02:07:21;;;;;;;1.57;1.43;;;13.20;90.40;;;;;;5032469;28;20469;-69
2023/06/05 02:09:47;;;;;;;1.90;1.37;;;13.20;90.40;;;;;;5032638;28;20206;-68
2023/06/05 02:12:15;;;;;;;3.00;1.60;;;13.20;90.40;;;;;;5032140;28;20422;-68
2023/06/05 02:14:44;;;;;;;1.53;1.30;;;13.20;90.20;;;;;;5032096;28;20414;-68
2023/06/05 02:17:13;;;;;;;1.47;1.30;;;13.20;90.30;;;;;;5032276;28;20438;-69
2023/06/05 02:19:41;;;;;;;2.73;1.57;;;13.20;90.40;;;;;;5031055;28;20501;-69
2023/06/05 02:22:07;;;;;;;1.77;1.40;;;13.20;90.30;;;;;;5032712;28;20445;-69
2023/06/05 02:24:33;;;;;;;3.73;2.00;;;13.10;90.40;;;;;;5032444;28;20505;-69
2023/06/05 02:26:59;;;;;;;2.53;2.00;;;13.10;90.50;;;;;;5032113;28;20225;-69
2023/06/05 02:29:25;;;;;;;2.93;1.57;;;13.10;90.60;;;;;;5032675;28;20497;-69
2023/06/05 02:31:51;;;;;;;3.80;1.73;;;13.10;90.60;;;;;;5032379;28;20947;-69
2023/06/05 02:34:16;;;;;;;1.70;1.47;;;13.10;90.40;;;;;;5031107;28;20666;-69
2023/06/05 02:36:45;;;;;;;1.53;1.43;;;13.20;90.40;;;;;;5024256;28;20230;-68
2023/06/05 02:39:11;;;;;;;1.70;1.60;;;13.30;90.20;;;;;;5032046;28;20249;-68
2023/06/05 02:41:37;;;;;;;1.40;1.30;;;13.30;90.10;;;;;;5031801;28;20922;-69
2023/06/05 02:44:03;;;;;;;2.17;1.20;;;13.30;90.00;;;;;;5031728;28;20410;-69
2023/06/05 02:46:29;;;;;;;3.23;1.63;;;13.30;89.80;;;;;;5031448;28;20502;-69
2023/06/05 02:48:54;;;;;;;5.83;1.90;;;13.30;89.80;;;;;;5031545;28;20210;-69
2023/06/05 02:51:20;;;;;;;1.70;1.60;;;13.30;90.00;;;;;;5029540;28;20179;-69
2023/06/05 02:53:46;;;;;;;1.67;1.47;;;13.30;89.90;;;;;;5030050;28;20229;-69
2023/06/05 02:56:12;;;;;;;1.90;1.80;;;13.30;89.90;;;;;;5031556;28;20200;-69
2023/06/05 02:58:39;;;;;;;1.77;1.50;;;13.30;90.00;;;;;;5031721;28;20607;-70
2023/06/05 03:01:08;;;;;;;1.73;1.63;;;13.30;89.80;;;;;;5031609;28;20501;-69
2023/06/05 03:03:34;;;;;;;2.70;1.53;;;13.30;89.90;;;;;;5031396;28;20913;-69
2023/06/05 03:06:06;;;;;;;3.20;1.70;;;13.30;89.80;;;;;;5031300;28;20480;-68
2023/06/05 03:08:36;;;;;;;1.50;1.40;;;13.30;89.70;;;;;;5029878;28;20414;-69
2023/06/05 03:11:03;;;;;;;1.67;1.40;;;13.30;89.60;;;;;;5023498;28;20840;-69
2023/06/05 03:13:29;;;;;;;1.50;1.40;;;13.30;90.00;;;;;;5031239;28;20406;-70
2023/06/05 03:16:00;;;;;;;2.60;1.90;;;13.30;90.00;;;;;;5031158;28;20460;-68
2023/06/05 03:18:27;;;;;;;2.20;2.00;;;13.30;90.20;;;;;;5031187;28;20406;-68
2023/06/05 03:20:54;;;;;;;2.67;1.63;;;13.30;90.30;;;;;;5031772;28;20441;-68
2023/06/05 03:23:24;;;;;;;5.93;2.27;;;13.30;90.50;;;;;;5032123;28;20493;-68
2023/06/05 03:25:51;;;;;;;2.87;1.77;;;13.30;90.60;;;;;;5030923;28;20395;-68
2023/06/05 03:28:17;;;;;;;2.07;1.47;;;13.30;90.80;;;;;;5027624;28;20485;-68
2023/06/05 03:30:43;;;;;;;1.70;1.60;;;13.30;90.70;;;;;;5031480;28;20406;-68
2023/06/05 03:33:09;;;;;;;1.97;1.63;;;13.30;90.80;;;;;;5031654;28;20411;-68
2023/06/05 03:35:35;;;;;;;3.20;1.97;;;13.30;90.90;;;;;;5031751;28;20425;-68
2023/06/05 03:38:03;;;;;;;2.00;1.40;;;13.30;90.80;;;;;;5030066;28;20195;-68
2023/06/05 03:40:29;;;;;;;1.90;1.50;;;13.30;90.70;;;;;;5031971;28;20187;-68
2023/06/05 03:42:54;;;;;;;1.90;1.60;;;13.30;90.80;;;;;;5030323;28;20936;-69
2023/06/05 03:45:22;;;;;;;1.80;1.70;;;13.30;90.60;;;;;;5030906;28;20469;-68
2023/06/05 03:47:48;;;;;;;8.53;1.50;;;13.40;90.70;;;;;;5031082;28;20230;-69
2023/06/05 03:50:17;;;;;;;3.50;1.73;;;13.40;90.50;;;;;;5031331;28;20442;-70
2023/06/05 03:52:43;;;;;;;2.70;1.60;;;13.40;90.30;;;;;;5029055;28;20846;-70
2023/06/05 03:55:09;;;;;;;3.50;2.07;;;13.50;90.20;;;;;;5026501;28;20493;-70
2023/06/05 03:57:37;;;;;;;1.97;1.77;;;13.50;90.30;;;;;;5051691;22;20598;-69
2023/06/05 04:00:05;;;;;;;3.27;2.50;;;13.60;90.40;;;;;;5028047;28;20537;-70
2023/06/05 04:02:34;;;;;;;2.73;2.00;;;13.60;90.30;;;;;;5029548;28;20414;-70
2023/06/05 04:05:01;;;;;;;2.43;2.23;;;13.70;90.00;;;;;;5029543;28;20456;-70
2023/06/05 04:07:26;;;;;;;1.90;1.40;;;13.70;89.80;;;;;;5029431;28;20462;-69
2023/06/05 04:09:52;;;;;;;2.57;1.70;;;13.80;90.00;;;;;;5029624;28;20413;-69
2023/06/05 04:12:19;;;;;;;3.10;2.67;;;13.80;89.50;;;;;;5029344;28;20180;-69
2023/06/05 04:14:45;;;;;;;3.60;1.87;;;13.90;89.40;;;;;;5028079;28;20190;-70
2023/06/05 04:17:13;;;;;;;2.53;1.60;;;14.20;89.30;;;;;;5029412;28;20808;-69
2023/06/05 04:19:39;;;;;;;2.80;1.50;;;15.00;88.00;;;;;;5029486;28;20923;-68
2023/06/05 04:22:05;;;;;;;6.83;1.80;;;16.10;84.50;;;;;;5029386;28;20410;-70
2023/06/05 04:24:31;;;;;;;2.80;1.60;;;16.80;80.90;;;;;;5027222;28;20440;-69
2023/06/05 04:26:57;;;;;;;3.27;1.57;;;17.50;78.40;;;;;;5029265;28;20452;-69
2023/06/05 04:29:23;;;;;;;1.80;1.53;;;17.80;76.70;;;;;;5029466;28;20212;-70
2023/06/05 04:31:49;;;;;;;1.77;1.60;;;17.90;76.50;;;;;;5029449;28;20410;-71
2023/06/05 04:34:14;;;;;;;7.07;1.77;;;18.40;74.90;;;;;;5029422;28;20289;-70
2023/06/05 04:36:41;;;;;;;4.43;2.10;;;18.50;74.30;;;;;;5033781;28;20516;-69
2023/06/05 04:39:13;;;;;;;1.83;1.47;;;18.80;72.60;;;;;;5032073;28;20670;-70
2023/06/05 04:41:44;;;;;;;3.00;1.90;;;18.90;71.90;;;;;;5033007;28;20508;-71
2023/06/05 04:44:16;;;;;;;7.23;1.80;;;18.90;70.80;;;;;;5032986;28;20422;-69
2023/06/05 04:46:45;;;;;;;1.60;1.50;;;18.70;72.10;;;;;;5032706;28;20452;-69
2023/06/05 04:49:14;;;;;;;1.73;1.40;;;18.30;72.70;;;;;;5031231;28;20962;-69
2023/06/05 04:51:41;;;;;;;3.30;1.50;;;17.90;74.10;;;;;;5032807;28;21056;-71
2023/06/05 04:54:06;;;;;;;4.80;1.83;;;17.80;74.90;;;;;;5032593;28;20413;-69
2023/06/05 04:56:39;;;;;;;5.60;2.03;;;17.70;75.10;;;;;;5032737;28;20416;-70
2023/06/05 04:59:04;;;;;;;2.90;1.67;;;17.60;76.60;;;;;;5032587;28;20257;-70
2023/06/05 05:01:31;;;;;;;1.80;1.50;;;18.20;75.30;;;;;;5032743;28;20523;-69
2023/06/05 05:03:56;;;;;;;3.67;1.70;;;19.20;73.90;;;;;;5032495;28;20180;-69
2023/06/05 05:06:22;;;;;;;2.77;1.87;;;19.90;72.40;;;;;;5030629;28;20464;-69
2023/06/05 05:08:48;;;;;;;3.83;2.23;;;19.70;70.90;;;;;;5032303;28;20269;-70
2023/06/05 05:11:15;;;;;;;3.03;1.60;;;19.50;70.70;;;;;;5032265;28;20444;-70
2023/06/05 05:13:42;;;;;;;2.43;2.00;;;19.70;71.60;;;;;;5032511;28;20169;-69
2023/06/05 05:16:08;;;;;;;3.03;1.60;;;19.90;70.00;;;;;;5032154;28;20411;-69
2023/06/05 05:18:35;;;;;;;5.00;2.10;;;19.80;71.60;;;;;;5032215;28;20445;-69
2023/06/05 05:21:02;;;;;;;4.83;2.20;;;20.60;69.50;;;;;;5030426;28;20525;-70
2023/06/05 05:23:27;;;;;;;2.70;1.93;;;21.10;67.00;;;;;;5030740;28;20879;-71
2023/06/05 05:25:53;;;;;;;2.63;1.80;;;21.40;66.90;;;;;;5033149;28;20438;-71
2023/06/05 05:28:18;;;;;;;3.40;1.77;;;21.10;66.30;;;;;;5032365;28;20186;-69
2023/06/05 05:30:44;;;;;;;3.13;2.07;;;21.70;65.50;;;;;;5032009;28;20168;-70
2023/06/05 05:33:10;;;;;;;1.60;1.50;;;21.70;64.50;;;;;;5032227;28;20178;-69
2023/06/05 05:35:35;;;;;;;3.40;1.70;;;21.70;65.30;;;;;;5031899;28;20171;-70
2023/06/05 05:38:01;;;;;;;4.10;1.70;;;21.70;63.80;;;;;;5031762;28;20443;-70
2023/06/05 05:40:27;;;;;;;3.60;2.00;;;21.00;66.00;;;;;;5030468;28;20178;-70
2023/06/05 05:42:52;;;;;;;2.43;1.60;;;21.40;66.80;;;;;;5029959;28;20271;-71
2023/06/05 05:45:18;;;;;;;7.20;2.10;;;21.40;64.90;;;;;;5030623;28;20662;-70
2023/06/05 05:47:43;;;;;;;3.30;2.23;;;22.00;63.90;;;;;;5031422;28;20276;-71
2023/06/05 05:50:09;;;;;;;5.50;2.03;;;22.40;64.00;;;;;;5032039;28;20178;-71
2023/06/05 05:52:35;;;;;;;2.13;1.70;;;22.70;62.40;;;;;;5026385;28;20628;-71
2023/06/05 05:55:03;;;;;;;1.50;1.40;;;22.90;63.00;;;;;;5031795;28;20429;-70
2023/06/05 05:57:28;;;;;;;2.00;1.80;;;22.60;62.30;;;;;;5030154;28;20732;-70
2023/06/05 05:59:54;;;;;;;3.70;1.90;;;23.20;60.60;;;;;;5031625;28;20561;-70
2023/06/05 06:02:20;;;;;;;2.00;1.73;;;23.20;60.70;;;;;;5031673;28;20175;-69
2023/06/05 06:04:47;;;;;;;3.37;2.17;;;23.50;59.50;;;;;;5031051;28;20410;-71
2023/06/05 06:07:13;;;;;;;5.90;2.30;;;24.00;58.20;;;;;;5031236;28;20555;-70
2023/06/05 06:09:39;;;;;;;3.30;1.70;;;23.40;58.60;;;;;;5031455;28;20475;-68
2023/06/05 06:12:07;;;;;;;3.73;1.80;;;23.50;59.50;;;;;;5031436;28;20222;-71
2023/06/05 06:14:33;;;;;;;4.13;1.80;;;24.00;58.00;;;;;;5030029;28;20559;-69
2023/06/05 06:16:59;;;;;;;2.90;1.70;;;24.00;58.70;;;;;;5031259;28;20492;-70
2023/06/05 06:19:27;;;;;;;3.17;2.50;;;24.00;61.30;;;;;;5032027;28;20418;-70
2023/06/05 06:21:53;;;;;;;2.40;1.67;;;23.60;59.30;;;;;;5032144;28;20440;-69
2023/06/05 06:24:23;;;;;;;3.37;2.00;;;23.40;59.30;;;;;;5031673;28;20452;-71
2023/06/05 06:26:49;;;;;;;2.50;1.90;;;24.20;58.70;;;;;;5031658;28;20458;-70
2023/06/05 06:29:19;;;;;;;4.80;1.77;;;25.80;56.10;;;;;;5031641;28;20488;-71
2023/06/05 06:31:44;;;;;;;2.83;1.80;;;25.60;56.70;;;;;;5030544;28;20944;-71
2023/06/05 06:34:10;;;;;;;2.57;2.37;;;25.70;55.50;;;;;;5031185;28;20505;-71
2023/06/05 06:36:40;;;;;;;3.93;1.63;;;26.20;53.70;;;;;;5031192;28;20176;-69
2023/06/05 06:39:07;;;;;;;2.80;1.70;;;25.70;55.50;;;;;;5031174;28;20695;-70
2023/06/05 06:41:34;;;;;;;2.13;1.93;;;27.30;52.30;;;;;;5030857;28;20444;-70
2023/06/05 06:43:59;;;;;;;2.97;1.90;;;27.70;51.20;;;;;;5030717;28;20421;-70
2023/06/05 06:46:25;;;;;;;4.60;1.97;;;27.10;52.10;;;;;;5028800;28;20477;-70
2023/06/05 06:48:51;;;;;;;3.90;1.60;;;26.50;53.10;;;;;;5030771;28;20203;-70
2023/06/05 06:51:17;;;;;;;3.00;1.63;;;27.40;51.20;;;;;;5025271;28;20422;-72
2023/06/05 06:53:43;;;;;;;7.87;2.10;;;26.10;52.50;;;;;;5030819;28;20187;-69
2023/06/05 06:56:09;;;;;;;4.93;2.10;;;26.50;52.20;;;;;;5030298;28;20645;-69
2023/06/05 06:58:36;;;;;;;2.67;1.50;;;26.30;52.70;;;;;;5030709;28;20457;-70
2023/06/05 07:01:03;;;;;;;5.17;2.20;;;26.50;53.30;;;;;;5029583;28;20537;-69
2023/06/05 07:03:29;;;;;;;1.90;1.70;;;28.00;49.50;;;;;;5029461;28;20471;-70
2023/06/05 07:05:54;;;;;;;1.80;1.70;;;28.10;49.50;;;;;;5030242;28;20496;-68
2023/06/05 07:08:20;;;;;;;3.67;1.70;;;28.50;51.50;;;;;;5030151;28;20269;-70
2023/06/05 07:10:45;;;;;;;7.17;2.40;;;29.80;47.40;;;;;;5030510;28;20225;-69
2023/06/05 07:13:11;;;;;;;2.20;1.93;;;30.40;46.10;;;;;;5030221;28;20180;-69
2023/06/05 07:15:37;;;;;;;2.00;1.80;;;29.00;46.70;;;;;;5030347;28;20500;-69
2023/06/05 07:18:03;;;;;;;3.57;1.93;;;28.50;48.50;;;;;;5029136;28;20470;-70
2023/06/05 07:20:28;;;;;;;3.00;1.87;;;28.00;48.80;;;;;;5030388;28;20261;-69
2023/06/05 07:22:54;;;;;;;2.40;2.20;;;27.20;49.50;;;;;;5030766;28;20637;-70
2023/06/05 07:25:22;;;;;;;4.43;1.80;;;26.50;51.20;;;;;;5030673;28;20180;-69
2023/06/05 07:27:48;;;;;;;3.37;1.73;;;27.50;49.70;;;;;;5030518;28;20214;-69
2023/06/05 07:30:14;;;;;;;3.70;1.67;;;29.00;47.30;;;;;;5026605;28;20406;-69
2023/06/05 07:32:42;;;;;;;5.80;1.77;;;27.20;48.70;;;;;;5026632;28;20634;-69
2023/06/05 07:35:08;;;;;;;2.20;1.80;;;28.10;46.80;;;;;;5024932;28;20182;-69
2023/06/05 07:37:34;;;;;;;3.30;1.77;;;29.20;45.90;;;;;;5029537;28;20489;-70
2023/06/05 07:40:00;;;;;;;2.50;1.40;;;27.70;48.60;;;;;;5030352;28;20419;-69
2023/06/05 07:42:26;;;;;;;3.53;1.73;;;27.80;49.30;;;;;;5030120;28;20934;-68
2023/06/05 07:44:51;;;;;;;3.30;1.77;;;28.60;47.80;;;;;;5029661;28;20264;-68
2023/06/05 07:47:17;;;;;;;2.97;2.20;;;27.70;47.30;;;;;;5029720;28;20203;-70
2023/06/05 07:49:42;;;;;;;4.10;1.90;;;26.70;50.90;;;;;;5028342;28;20175;-71
2023/06/05 07:52:08;;;;;;;2.50;1.87;;;27.50;52.50;;;;;;5023481;28;20197;-70
2023/06/05 07:54:33;;;;;;;3.00;1.83;;;27.40;49.40;;;;;;5029613;28;20179;-71
2023/06/05 07:56:59;;;;;;;3.53;3.00;;;27.20;50.40;;;;;;5030588;28;20179;-70
2023/06/05 07:59:27;;;;;;;2.73;1.37;;;28.60;47.20;;;;;;5031231;28;20167;-71
2023/06/05 08:01:55;;;;;;;6.87;2.97;;;30.30;45.00;;;;;;5037901;28;20270;-70
2023/06/05 08:04:24;;;;;;;2.93;2.30;;;29.20;46.30;;;;;;5030373;28;21018;-70
2023/06/05 08:06:51;;;;;;;2.60;1.73;;;28.30;46.90;;;;;;5030051;28;20454;-70
2023/06/05 08:09:17;;;;;;;2.47;1.90;;;28.70;46.00;;;;;;5030451;28;20441;-71
2023/06/05 08:11:42;;;;;;;5.37;1.93;;;28.90;45.30;;;;;;5034073;28;20532;-70
2023/06/05 08:14:08;;;;;;;4.67;1.80;;;29.50;44.50;;;;;;5033706;28;20497;-69
2023/06/05 08:16:35;;;;;;;2.70;1.70;;;29.50;43.80;;;;;;5033881;28;20646;-68
2023/06/05 08:19:01;;;;;;;3.67;1.90;;;27.90;46.60;;;;;;5033953;28;20438;-70
2023/06/05 08:21:26;;;;;;;3.37;1.50;;;29.10;44.50;;;;;;5033803;28;20780;-71
2023/06/05 08:23:52;;;;;;;1.93;1.33;;;30.20;41.70;;;;;;5033233;28;20406;-70
2023/06/05 08:26:21;;;;;;;4.80;1.73;;;30.00;42.10;;;;;;5032165;28;20203;-70
2023/06/05 08:28:48;;;;;;;2.27;1.87;;;29.90;43.00;;;;;;5026741;28;20203;-70
2023/06/05 08:31:14;;;;;;;4.93;1.70;;;29.20;44.60;;;;;;5033272;28;20418;-70
2023/06/05 08:33:41;;;;;;;4.43;1.77;;;28.70;47.90;;;;;;5033138;28;20417;-69
2023/06/05 08:36:07;;;;;;;3.13;1.63;;;29.00;44.80;;;;;;5033176;28;20259;-70
2023/06/05 08:38:34;;;;;;;2.20;1.50;;;28.80;45.00;;;;;;5032854;28;20905;-69
2023/06/05 08:41:01;;;;;;;3.20;1.40;;;28.30;45.00;;;;;;5032982;28;20178;-70
2023/06/05 08:43:28;;;;;;;3.13;1.67;;;28.30;45.40;;;;;;5024832;28;20878;-69
2023/06/05 08:45:56;;;;;;;5.67;1.87;;;28.60;44.60;;;;;;5033080;28;20422;-69
2023/06/05 08:48:24;;;;;;;2.17;1.77;;;29.40;42.70;;;;;;5032833;28;20441;-70
2023/06/05 08:50:50;;;;;;;2.00;1.63;;;30.50;41.30;;;;;;5028675;28;20413;-71
2023/06/05 08:53:17;;;;;;;4.80;1.67;;;30.50;41.50;;;;;;5031678;28;20814;-70
2023/06/05 08:55:50;;;;;;;2.07;1.40;;;29.20;43.00;;;;;;5032432;28;20735;-70
2023/06/05 08:58:16;;;;;;;2.70;1.43;;;29.20;43.20;;;;;;5032555;28;20446;-69
2023/06/05 09:00:42;;;;;;;3.03;1.70;;;29.50;43.20;;;;;;5032431;28;20441;-70
2023/06/05 09:03:15;;;;;;;2.80;1.60;;;30.20;42.30;;;;;;5031024;28;20458;-69
2023/06/05 09:05:40;;;;;;;5.63;1.87;;;30.20;41.10;;;;;;5032370;28;20252;-69
2023/06/05 09:08:06;;;;;;;3.17;1.60;;;29.30;41.90;;;;;;5032192;28;20489;-69
2023/06/05 09:10:32;;;;;;;2.10;1.30;;;29.10;42.20;;;;;;5032403;28;20194;-69
2023/06/05 09:13:00;;;;;;;2.63;1.33;;;28.50;43.80;;;;;;5032735;28;20171;-70
2023/06/05 09:15:27;;;;;;;3.37;1.30;;;28.90;42.00;;;;;;5032445;28;20877;-70
2023/06/05 09:18:14;;;;;;;2.93;1.60;;;29.50;40.90;;;;;;5032183;28;20516;-69
2023/06/05 09:20:46;;;;;;;5.07;2.57;;;29.50;41.60;;;;;;5030703;28;20791;-70
2023/06/05 09:23:41;;;;;;;1.80;1.70;;;28.90;42.80;;;;;;5032822;28;20406;-70
2023/06/05 09:26:09;;;;;;;1.67;1.53;;;29.50;40.60;;;;;;5021892;28;20419;-70
2023/06/05 09:28:35;;;;;;;1.90;1.20;;;30.00;40.00;;;;;;5032256;28;20471;-68
2023/06/05 09:31:02;;;;;;;1.40;1.30;;;29.90;40.00;;;;;;5030588;28;20402;-69
2023/06/05 09:33:37;;;;;;;1.97;1.20;;;29.70;41.00;;;;;;5023817;28;20487;-69
2023/06/05 09:36:06;;;;;;;2.60;1.50;;;30.30;40.20;;;;;;5032198;28;20745;-71
2023/06/05 09:38:32;;;;;;;1.53;1.40;;;28.00;43.70;;;;;;5024401;28;20453;-69
2023/06/05 09:41:11;;;;;;;2.10;1.70;;;28.40;43.50;;;;;;5015908;28;20815;-70
2023/06/05 09:43:38;;;;;;;1.40;1.30;;;28.50;42.40;;;;;;5022709;28;20443;-69
2023/06/05 09:46:07;;;;;;;2.30;1.23;;;28.70;42.40;;;;;;5021816;28;20511;-69
2023/06/05 09:48:33;;;;;;;3.00;1.70;;;29.40;41.40;;;;;;5031504;28;20980;-68
2023/06/05 09:51:18;;;;;;;3.83;1.33;;;29.90;40.50;;;;;;5021493;28;20498;-69
2023/06/05 09:53:47;;;;;;;5.80;1.80;;;30.50;40.00;;;;;;5031187;28;20625;-70
2023/06/05 09:56:17;;;;;;;1.70;1.20;;;29.70;40.70;;;;;;5031176;28;20422;-70
2023/06/05 09:58:48;;;;;;;1.50;1.40;;;30.20;40.00;;;;;;5027222;28;20853;-69
2023/06/05 10:01:17;;;;;;;2.50;1.50;;;29.80;40.10;;;;;;5023169;28;20427;-69
2023/06/05 10:03:47;;;;;;;1.93;1.60;;;29.60;40.00;;;;;;5029521;28;20767;-68
2023/06/05 10:06:16;;;;;;;2.43;1.67;;;29.00;40.70;;;;;;5031072;28;20402;-69
2023/06/05 10:08:42;;;;;;;4.50;2.03;;;28.00;41.00;;;;;;5026406;28;20438;-69
2023/06/05 10:11:10;;;;;;;3.53;1.50;;;27.60;42.30;;;;;;5028061;28;20414;-68
2023/06/05 10:13:36;;;;;;;2.13;1.60;;;27.60;42.40;;;;;;5026307;28;20461;-68
2023/06/05 10:16:02;;;;;;;1.53;1.40;;;27.70;42.50;;;;;;5027268;28;20493;-70
2023/06/05 10:18:27;;;;;;;2.50;1.50;;;27.10;42.20;;;;;;5028649;28;20198;-70
2023/06/05 10:20:55;;;;;;;1.50;1.40;;;26.80;42.50;;;;;;5025218;28;20575;-70
2023/06/05 10:23:24;;;;;;;4.20;1.60;;;26.40;44.10;;;;;;5031558;28;20304;-70
2023/06/05 10:25:52;;;;;;;3.40;1.80;;;26.40;42.50;;;;;;5029773;28;20417;-70
2023/06/05 10:28:39;;;;;;;1.60;1.40;;;26.10;43.70;;;;;;5031049;28;20877;-71
2023/06/05 10:31:22;;;;;;;1.83;1.60;;;26.30;43.30;;;;;;5025629;28;20401;-70
2023/06/05 10:34:23;;;;;;;2.70;1.70;;;26.10;43.60;;;;;;5023894;28;20464;-70
2023/06/05 10:37:13;;;;;;;3.20;1.70;;;25.60;44.90;;;;;;5019259;28;20436;-70
2023/06/05 10:39:39;;;;;;;3.87;1.80;;;25.10;45.20;;;;;;5021713;28;20471;-69
2023/06/05 10:42:05;;;;;;;5.00;1.80;;;25.30;45.20;;;;;;5031026;28;20453;-70
2023/06/05 10:44:44;;;;;;;2.47;1.57;;;25.30;45.10;;;;;;5027672;28;20415;-70
2023/06/05 10:47:32;;;;;;;1.90;1.50;;;25.40;45.50;;;;;;5026556;28;20950;-69
2023/06/05 10:50:19;;;;;;;2.20;1.63;;;25.40;45.00;;;;;;5026100;28;20451;-70
2023/06/05 10:52:45;;;;;;;3.67;1.60;;;25.20;45.30;;;;;;5022269;28;20417;-70
2023/06/05 10:55:12;;;;;;;6.17;1.50;;;25.00;45.40;;;;;;5029640;28;20427;-68
2023/06/05 10:58:01;;;;;;;2.80;1.70;;;25.20;45.60;;;;;;5029770;28;20542;-69
2023/06/05 11:00:30;;;;;;;3.40;1.70;;;25.20;45.20;;;;;;5021430;28;20531;-68
2023/06/05 11:02:57;;;;;;;1.87;1.43;;;25.20;45.70;;;;;;5029813;28;20532;-69
2023/06/05 11:05:23;;;;;;;4.57;1.60;;;25.20;45.60;;;;;;5030505;28;20418;-71
2023/06/05 11:08:15;;;;;;;2.13;1.53;;;25.00;44.90;;;;;;5029626;28;20992;-69
2023/06/05 11:11:03;;;;;;;1.90;1.67;;;24.90;46.10;;;;;;5023632;28;20516;-74
2023/06/05 11:13:52;;;;;;;5.23;3.53;;;24.70;45.30;;;;;;5029603;28;20437;-70
2023/06/05 11:16:36;;;;;;;3.17;2.13;;;24.90;45.60;;;;;;5026091;28;20556;-70
2023/06/05 11:19:20;;;;;;;3.70;2.40;;;25.10;44.70;;;;;;5026239;28;20432;-69
2023/06/05 11:22:02;;;;;;;2.30;1.40;;;25.40;44.30;;;;;;5021509;28;20417;-70
2023/06/05 11:24:28;;;;;;;2.80;1.80;;;25.30;44.30;;;;;;5008385;22;1093871;-69
2023/06/05 11:26:53;;;;;;;3.53;2.47;;;25.20;44.50;;;;;;5028048;28;20201;-67
2023/06/05 11:29:22;;;;;;;2.50;1.90;;;25.30;44.30;;;;;;5031508;28;20206;-68
2023/06/05 11:31:48;;;;;;;1.70;1.60;;;25.40;44.00;;;;;;5024673;28;20181;-68
2023/06/05 11:34:14;;;;;;;5.20;1.80;;;24.90;44.10;;;;;;5031448;28;21126;-67
2023/06/05 11:36:40;;;;;;;4.90;2.10;;;25.10;44.10;;;;;;5031591;28;20186;-67
2023/06/05 11:39:07;;;;;;;4.80;1.87;;;25.40;44.30;;;;;;5031511;28;20564;-67
2023/06/05 11:41:33;;;;;;;2.90;2.00;;;25.10;44.20;;;;;;5031320;28;20423;-67
2023/06/05 11:43:59;;;;;;;2.13;1.93;;;25.10;44.60;;;;;;5025322;28;20440;-72
2023/06/05 11:46:42;;;;;;;1.93;1.77;;;25.10;44.40;;;;;;5031356;28;20202;-70
2023/06/05 11:49:23;;;;;;;2.03;1.80;;;24.80;44.90;;;;;;5031383;28;20164;-68
2023/06/05 11:51:48;;;;;;;3.97;1.90;;;24.80;44.90;;;;;;5031228;28;20414;-70
2023/06/05 11:54:27;;;;;;;2.50;1.53;;;24.50;45.10;;;;;;5031093;28;20433;-67
2023/06/05 11:56:57;;;;;;;2.23;1.70;;;24.90;45.00;;;;;;5024517;28;20201;-70
2023/06/05 11:59:24;;;;;;;2.10;1.70;;;25.00;44.90;;;;;;5031074;28;20820;-69
2023/06/05 12:01:53;;;;;;;5.00;1.70;;;25.20;44.20;;;;;;5029907;28;20504;-67
2023/06/05 12:04:19;;;;;;;2.13;1.93;;;25.20;44.70;;;;;;5029213;28;20541;-69
2023/06/05 12:06:51;;;;;;;3.23;1.63;;;25.30;44.30;;;;;;5031127;28;20455;-68
2023/06/05 12:09:17;;;;;;;2.40;2.03;;;25.40;44.20;;;;;;5017566;28;20961;-74
2023/06/05 12:11:44;;;;;;;2.43;2.23;;;25.40;43.40;;;;;;5016503;28;20524;-68
2023/06/05 12:14:28;;;;;;;1.90;1.63;;;25.10;43.70;;;;;;5024398;28;20206;-68
2023/06/05 12:16:53;;;;;;;2.80;2.30;;;25.20;43.20;;;;;;5026166;28;20505;-70
2023/06/05 12:19:19;;;;;;;7.70;1.60;;;25.20;44.10;;;;;;5025542;28;20429;-69
2023/06/05 12:21:47;;;;;;;2.83;2.50;;;25.40;43.80;;;;;;5025999;28;20185;-69
2023/06/05 12:24:13;;;;;;;2.00;1.80;;;25.40;44.00;;;;;;5025319;28;20214;-68
2023/06/05 12:26:53;;;;;;;1.80;1.70;;;25.30;44.10;;;;;;5025765;28;20464;-68
2023/06/05 12:29:20;;;;;;;3.33;2.10;;;25.40;44.00;;;;;;5025757;28;21018;-70
2023/06/05 12:31:45;;;;;;;1.93;1.80;;;25.20;44.30;;;;;;5025952;28;20927;-67
2023/06/05 12:34:12;;;;;;;3.70;2.00;;;25.40;44.00;;;;;;5007502;28;20452;-68
2023/06/05 12:36:40;;;;;;;2.30;2.10;;;25.70;44.30;;;;;;5025508;28;20189;-66
2023/06/05 12:39:06;;;;;;;3.73;2.10;;;25.80;44.30;;;;;;5025587;28;20901;-67
2023/06/05 12:41:33;;;;;;;1.87;1.77;;;25.50;43.60;;;;;;5025913;28;21045;-67
2023/06/05 12:44:07;;;;;;;3.70;1.80;;;25.40;44.90;;;;;;5024004;28;20511;-68
2023/06/05 12:46:34;;;;;;;2.70;1.93;;;25.70;44.60;;;;;;5025700;28;20454;-66
2023/06/05 12:49:05;;;;;;;2.40;2.13;;;25.50;44.40;;;;;;5023775;28;20429;-69
2023/06/05 12:51:30;;;;;;;2.33;2.13;;;25.70;44.60;;;;;;5025450;28;20864;-69
2023/06/05 12:53:57;;;;;;;2.50;2.27;;;25.60;44.00;;;;;;5026085;28;20436;-68